Time;durP1;ratioP1;P1;durP2;ratioP2;P2;SDS_P1;SDS_P2;PMS_P1;PMS_P2;Temp;Humidity;BMP_temperature;BMP_pressure;BME280_temperature;BME280_humidity;BME280_pressure;Samples;Min_cycle;Max_cycle;Signal;HPM_P1;HPM_P2
2022/07/26 00:01:13;;;;;;;11.52;3.55;;;19.20;99.90;;;;;;4864464;29;20116;-76
2022/07/26 00:03:39;;;;;;;10.40;2.67;;;19.20;99.90;;;;;;4862036;29;20125;-76
2022/07/26 00:06:05;;;;;;;11.63;2.88;;;19.20;99.90;;;;;;4882665;29;20056;-77
2022/07/26 00:08:30;;;;;;;13.32;3.17;;;19.20;99.90;;;;;;4880107;29;20132;-76
2022/07/26 00:10:56;;;;;;;11.57;3.13;;;19.20;99.90;;;;;;4870180;29;20041;-76
2022/07/26 00:13:22;;;;;;;11.35;3.00;;;19.10;99.90;;;;;;4865579;29;20044;-76
2022/07/26 00:15:48;;;;;;;12.32;3.15;;;19.10;99.90;;;;;;4866142;29;20482;-76
2022/07/26 00:18:15;;;;;;;8.75;3.13;;;19.10;99.90;;;;;;4875644;29;20045;-76
2022/07/26 00:20:41;;;;;;;12.07;2.78;;;19.00;99.90;;;;;;4867943;29;20537;-76
2022/07/26 00:23:07;;;;;;;15.00;3.08;;;19.00;99.90;;;;;;4868497;29;20069;-76
2022/07/26 00:25:33;;;;;;;10.52;2.97;;;19.00;99.90;;;;;;4871547;29;20409;-77
2022/07/26 00:27:59;;;;;;;12.02;3.05;;;19.00;99.90;;;;;;4868485;29;20136;-77
2022/07/26 00:30:25;;;;;;;16.30;4.38;;;19.00;99.90;;;;;;4885214;29;20084;-77
2022/07/26 00:32:54;;;;;;;14.27;4.15;;;18.90;99.90;;;;;;4877670;29;20047;-76
2022/07/26 00:35:20;;;;;;;14.18;3.10;;;18.90;99.90;;;;;;4864973;29;20113;-76
2022/07/26 00:37:46;;;;;;;8.95;3.03;;;18.90;99.90;;;;;;4870350;29;20633;-76
2022/07/26 00:40:12;;;;;;;17.42;3.03;;;18.90;99.90;;;;;;4865885;29;20430;-77
2022/07/26 00:42:38;;;;;;;20.92;4.32;;;18.80;99.90;;;;;;4867912;29;20507;-77
2022/07/26 00:45:06;;;;;;;14.25;3.30;;;18.90;99.90;;;;;;4862810;29;20049;-77
2022/07/26 00:47:32;;;;;;;11.38;3.10;;;18.90;99.90;;;;;;4870418;29;20045;-77
2022/07/26 00:49:58;;;;;;;12.57;3.00;;;18.80;99.90;;;;;;4871692;29;20409;-77
2022/07/26 00:52:24;;;;;;;14.93;3.67;;;18.70;99.90;;;;;;4874873;29;21048;-76
2022/07/26 00:54:53;;;;;;;13.27;3.30;;;18.70;99.90;;;;;;4874894;29;20033;-77
2022/07/26 00:57:20;;;;;;;14.73;3.40;;;18.70;99.90;;;;;;4880159;29;20053;-77
2022/07/26 00:59:46;;;;;;;14.90;3.38;;;18.70;99.90;;;;;;4870632;29;20129;-77
2022/07/26 01:02:13;;;;;;;11.02;3.15;;;18.60;99.90;;;;;;4866366;29;20042;-76
2022/07/26 01:04:38;;;;;;;14.05;3.40;;;18.60;99.90;;;;;;4866398;29;20503;-77
2022/07/26 01:07:05;;;;;;;13.18;3.85;;;18.60;99.90;;;;;;4871571;29;20049;-76
2022/07/26 01:09:31;;;;;;;13.70;3.55;;;18.60;99.90;;;;;;4874339;29;20105;-77
2022/07/26 01:11:58;;;;;;;13.40;3.38;;;19.10;99.90;;;;;;4868552;29;20045;-76
2022/07/26 01:14:24;;;;;;;14.48;3.92;;;18.60;99.90;;;;;;4870097;29;20063;-76
2022/07/26 01:16:51;;;;;;;15.25;3.95;;;18.50;99.90;;;;;;4876691;29;20105;-76
2022/07/26 01:19:17;;;;;;;11.10;3.53;;;18.50;99.90;;;;;;4860314;29;20049;-77
2022/07/26 01:21:43;;;;;;;11.07;3.95;;;18.50;99.90;;;;;;4877215;29;20119;-76
2022/07/26 01:24:09;;;;;;;12.75;3.28;;;18.50;99.90;;;;;;4865067;29;20096;-77
2022/07/26 01:26:35;;;;;;;14.77;3.60;;;18.50;99.90;;;;;;4865005;29;20052;-76
2022/07/26 01:29:00;;;;;;;12.15;3.20;;;18.50;99.90;;;;;;4874276;29;20046;-76
2022/07/26 01:31:26;;;;;;;14.02;3.03;;;18.50;99.90;;;;;;4866699;29;20440;-77
2022/07/26 01:33:52;;;;;;;12.40;3.42;;;18.40;99.90;;;;;;4873890;29;20174;-76
2022/07/26 01:36:18;;;;;;;12.68;3.05;;;18.40;99.90;;;;;;4873375;29;20090;-76
2022/07/26 01:38:45;;;;;;;12.95;3.05;;;18.40;99.90;;;;;;4866844;29;20098;-77
2022/07/26 01:41:11;;;;;;;13.38;4.10;;;18.40;99.90;;;;;;4876766;29;20537;-76
2022/07/26 01:43:38;;;;;;;18.38;3.95;;;18.40;99.90;;;;;;4869266;29;20132;-77
2022/07/26 01:46:07;;;;;;;21.58;4.40;;;18.30;99.90;;;;;;4861384;29;20068;-77
2022/07/26 01:48:35;;;;;;;19.30;3.40;;;18.30;99.90;;;;;;4855944;29;20101;-77
2022/07/26 01:51:01;;;;;;;14.70;3.78;;;18.30;99.90;;;;;;4872134;29;20094;-77
2022/07/26 01:53:27;;;;;;;15.43;4.07;;;18.30;99.90;;;;;;4878089;29;20041;-76
2022/07/26 01:55:53;;;;;;;18.20;3.75;;;18.30;99.90;;;;;;4878077;29;20056;-77
2022/07/26 01:58:20;;;;;;;14.45;4.00;;;18.30;99.90;;;;;;4873464;29;20052;-76
2022/07/26 02:00:46;;;;;;;17.90;3.58;;;18.20;99.90;;;;;;4868019;29;20077;-76
2022/07/26 02:03:11;;;;;;;23.45;4.53;;;18.20;99.90;;;;;;4872444;29;20098;-77
2022/07/26 02:05:37;;;;;;;11.77;3.38;;;18.20;99.90;;;;;;4867208;29;20045;-76
2022/07/26 02:08:03;;;;;;;12.98;3.83;;;18.20;99.90;;;;;;4867141;29;20041;-77
2022/07/26 02:13:13;;;;;;;14.90;3.80;;;18.10;99.90;;;;;;4881649;29;20053;-76
2022/07/26 02:15:40;;;;;;;16.55;4.28;;;18.10;99.90;;;;;;4848649;29;20405;-77
2022/07/26 02:18:06;;;;;;;14.05;3.45;;;18.10;99.90;;;;;;4884463;29;20045;-76
2022/07/26 02:20:32;;;;;;;12.38;3.78;;;18.10;99.90;;;;;;4865579;29;20045;-76
2022/07/26 02:23:01;;;;;;;13.57;3.53;;;18.10;99.90;;;;;;4870895;29;20055;-76
2022/07/26 02:25:28;;;;;;;10.85;3.40;;;18.10;99.90;;;;;;4868535;29;20136;-76
2022/07/26 02:27:53;;;;;;;12.95;3.63;;;18.10;99.90;;;;;;4861835;29;20044;-76
2022/07/26 02:30:19;;;;;;;10.18;3.10;;;18.10;99.90;;;;;;4875369;29;20045;-76
2022/07/26 02:32:46;;;;;;;14.82;3.20;;;18.10;99.90;;;;;;4869192;29;20052;-76
2022/07/26 02:35:12;;;;;;;12.15;3.35;;;18.10;99.90;;;;;;4868230;29;20053;-76
2022/07/26 02:37:39;;;;;;;8.55;2.88;;;18.20;99.90;;;;;;4872577;29;20495;-76
2022/07/26 02:40:05;;;;;;;12.05;3.67;;;18.20;99.90;;;;;;4867286;29;20499;-76
2022/07/26 02:42:32;;;;;;;8.68;3.22;;;18.20;99.90;;;;;;4876351;29;20371;-76
2022/07/26 02:44:58;;;;;;;10.02;3.35;;;18.20;99.90;;;;;;4869513;29;20116;-76
2022/07/26 02:47:24;;;;;;;9.15;2.72;;;18.20;99.90;;;;;;4872095;29;20455;-75
2022/07/26 02:49:50;;;;;;;7.72;2.50;;;18.20;99.90;;;;;;4863060;29;20067;-75
2022/07/26 02:52:15;;;;;;;9.30;3.03;;;18.20;99.90;;;;;;4866530;29;20050;-76
2022/07/26 02:54:41;;;;;;;7.32;2.50;;;18.20;99.90;;;;;;4865611;29;20037;-76
2022/07/26 02:57:07;;;;;;;8.85;3.05;;;18.20;99.90;;;;;;4864901;29;20543;-77
2022/07/26 02:59:33;;;;;;;6.93;2.50;;;18.20;99.90;;;;;;4867287;29;20467;-77
2022/07/26 03:01:58;;;;;;;3.38;2.22;;;18.20;99.90;;;;;;4874075;29;20048;-77
2022/07/26 03:04:25;;;;;;;9.77;2.67;;;18.30;99.90;;;;;;4867183;29;20101;-76
2022/07/26 03:06:50;;;;;;;4.35;2.10;;;18.30;99.90;;;;;;4868578;29;20045;-76
2022/07/26 03:09:16;;;;;;;4.40;2.33;;;18.30;99.90;;;;;;4871140;29;20120;-76
2022/07/26 03:11:42;;;;;;;8.50;2.33;;;18.30;99.90;;;;;;4866273;29;20418;-77
2022/07/26 03:14:08;;;;;;;7.65;2.65;;;18.30;99.90;;;;;;4868754;29;20078;-76
2022/07/26 03:16:33;;;;;;;5.50;2.40;;;18.30;99.90;;;;;;4869618;29;20116;-77
2022/07/26 03:19:00;;;;;;;6.88;2.30;;;18.30;99.90;;;;;;4875013;29;20049;-77
2022/07/26 03:21:27;;;;;;;8.00;2.28;;;18.30;99.90;;;;;;4866249;29;20126;-77
2022/07/26 03:23:52;;;;;;;5.13;2.63;;;18.30;99.90;;;;;;4867662;29;20073;-77
2022/07/26 03:26:19;;;;;;;9.43;2.25;;;18.40;99.90;;;;;;4866566;29;20104;-77
2022/07/26 03:28:44;;;;;;;4.95;2.10;;;18.30;99.90;;;;;;4866811;29;20052;-77
2022/07/26 03:31:12;;;;;;;8.45;2.28;;;18.40;99.90;;;;;;4866415;29;20045;-77
2022/07/26 03:33:40;;;;;;;4.28;2.50;;;18.40;99.90;;;;;;4867110;29;20554;-77
2022/07/26 03:36:09;;;;;;;4.53;1.90;;;18.40;99.90;;;;;;4871254;29;20053;-76
2022/07/26 03:38:36;;;;;;;6.13;2.33;;;18.40;99.90;;;;;;4869065;29;20132;-77
2022/07/26 03:41:02;;;;;;;3.75;2.10;;;18.40;99.90;;;;;;4870817;29;20963;-77
2022/07/26 03:43:28;;;;;;;6.90;2.60;;;18.20;99.90;;;;;;4866456;29;20045;-76
2022/07/26 03:45:54;;;;;;;7.20;2.75;;;18.20;99.90;;;;;;4867003;29;20045;-76
2022/07/26 03:48:20;;;;;;;6.15;2.38;;;18.10;99.90;;;;;;4870380;29;20100;-77
2022/07/26 03:50:46;;;;;;;5.20;2.00;;;18.10;99.90;;;;;;4863017;29;20060;-76
2022/07/26 03:53:12;;;;;;;6.45;2.42;;;18.00;99.90;;;;;;4872146;29;20049;-77
2022/07/26 03:58:22;;;;;;;4.93;2.53;;;17.90;99.90;;;;;;4868327;29;20045;-76
2022/07/26 04:00:48;;;;;;;7.15;2.20;;;17.80;99.90;;;;;;4872199;29;20069;-76
2022/07/26 04:03:13;;;;;;;6.18;2.30;;;17.80;99.90;;;;;;4870356;29;20045;-76
2022/07/26 04:05:39;;;;;;;10.52;2.63;;;17.80;99.90;;;;;;4870093;29;20049;-76
2022/07/26 04:08:05;;;;;;;7.88;2.50;;;17.70;99.90;;;;;;4866982;29;20049;-76
2022/07/26 04:10:33;;;;;;;4.50;1.77;;;17.70;99.90;;;;;;4872705;29;20046;-76
2022/07/26 04:12:59;;;;;;;5.32;1.90;;;17.70;99.90;;;;;;4871514;29;20482;-76
2022/07/26 04:15:25;;;;;;;4.57;2.13;;;17.70;99.90;;;;;;4866793;29;20053;-76
2022/07/26 04:17:50;;;;;;;6.03;2.20;;;17.70;99.90;;;;;;4867847;29;20401;-76
2022/07/26 04:20:16;;;;;;;8.85;2.60;;;17.70;99.90;;;;;;4884854;29;20117;-76
2022/07/26 04:22:43;;;;;;;7.82;2.63;;;17.60;99.90;;;;;;4872704;29;20120;-76
2022/07/26 04:25:09;;;;;;;5.93;2.13;;;17.60;99.90;;;;;;4871697;29;20053;-76
2022/07/26 04:27:36;;;;;;;7.57;2.50;;;17.70;99.90;;;;;;4867306;29;20053;-76
2022/07/26 04:30:02;;;;;;;8.07;2.22;;;17.60;99.90;;;;;;4874548;29;20043;-76
2022/07/26 04:32:28;;;;;;;5.93;2.33;;;17.60;99.90;;;;;;4874208;29;20504;-76
2022/07/26 04:34:54;;;;;;;5.53;2.25;;;17.60;99.90;;;;;;4869142;29;20124;-76
2022/07/26 04:37:20;;;;;;;6.03;2.45;;;17.70;99.90;;;;;;4864311;29;20129;-76
2022/07/26 04:39:45;;;;;;;4.72;2.03;;;17.70;99.90;;;;;;4859458;29;20048;-76
2022/07/26 04:42:11;;;;;;;6.40;2.10;;;17.70;99.90;;;;;;4869875;29;20046;-76
2022/07/26 04:44:37;;;;;;;7.03;2.17;;;17.70;99.90;;;;;;4869137;29;20085;-76
2022/07/26 04:47:03;;;;;;;4.85;2.63;;;17.70;99.90;;;;;;4870725;29;20086;-76
2022/07/26 04:49:29;;;;;;;5.75;2.45;;;17.70;99.90;;;;;;4870549;29;20061;-76
2022/07/26 04:51:55;;;;;;;9.57;2.30;;;17.70;99.90;;;;;;4876008;29;20063;-76
2022/07/26 04:54:21;;;;;;;8.73;2.38;;;17.70;99.90;;;;;;4866930;29;20049;-76
2022/07/26 04:56:48;;;;;;;5.82;2.20;;;17.80;99.90;;;;;;4869714;29;20155;-76
2022/07/26 04:59:16;;;;;;;4.32;1.83;;;17.70;99.90;;;;;;4871331;29;20049;-76
2022/07/26 05:01:42;;;;;;;8.27;2.70;;;17.80;99.90;;;;;;4858491;29;20544;-76
2022/07/26 05:04:08;;;;;;;8.73;2.53;;;17.70;99.90;;;;;;4856226;29;20037;-76
2022/07/26 05:06:35;;;;;;;4.90;2.10;;;17.70;99.90;;;;;;4875376;29;20051;-76
2022/07/26 05:09:00;;;;;;;6.25;1.85;;;17.70;99.90;;;;;;4877877;29;20096;-76
2022/07/26 05:11:27;;;;;;;8.18;2.30;;;17.70;99.90;;;;;;4853939;29;20057;-75
2022/07/26 05:13:52;;;;;;;7.13;2.35;;;17.70;99.90;;;;;;4873017;29;20085;-76
2022/07/26 05:16:18;;;;;;;3.88;1.73;;;17.80;99.90;;;;;;4873854;29;20049;-75
2022/07/26 05:18:44;;;;;;;6.32;2.10;;;17.70;99.90;;;;;;4863985;29;20074;-76
2022/07/26 05:21:10;;;;;;;7.78;2.20;;;17.80;99.90;;;;;;4857096;29;20048;-76
2022/07/26 05:23:36;;;;;;;11.20;2.05;;;17.80;99.90;;;;;;4873044;29;20041;-78
2022/07/26 05:26:02;;;;;;;8.10;2.45;;;17.80;99.90;;;;;;4880866;29;20109;-77
2022/07/26 05:28:28;;;;;;;5.55;1.52;;;17.90;99.90;;;;;;4873458;29;20455;-77
2022/07/26 05:30:54;;;;;;;8.00;1.48;;;17.90;99.90;;;;;;4868922;29;20053;-77
2022/07/26 05:33:19;;;;;;;5.38;1.30;;;17.90;99.90;;;;;;4875560;29;20096;-77
2022/07/26 05:35:45;;;;;;;5.43;1.70;;;17.80;99.90;;;;;;4874892;29;20071;-77
2022/07/26 05:38:11;;;;;;;7.47;1.48;;;17.80;99.90;;;;;;4870986;29;20520;-77
2022/07/26 05:40:36;;;;;;;8.43;1.60;;;17.80;99.90;;;;;;4860259;29;20507;-77
2022/07/26 05:43:03;;;;;;;7.07;1.55;;;17.80;99.90;;;;;;4875688;29;20041;-78
2022/07/26 05:45:29;;;;;;;7.70;2.42;;;17.80;99.90;;;;;;4863515;29;20093;-77
2022/07/26 05:47:55;;;;;;;5.00;1.40;;;17.80;99.90;;;;;;4870889;29;20249;-77
2022/07/26 05:50:21;;;;;;;4.30;1.67;;;17.80;99.90;;;;;;4856306;29;20450;-77
2022/07/26 05:52:46;;;;;;;11.15;1.55;;;17.80;99.90;;;;;;4850243;29;20053;-77
2022/07/26 05:55:12;;;;;;;8.02;1.50;;;17.80;99.90;;;;;;4871391;29;20102;-77
2022/07/26 05:57:41;;;;;;;4.47;1.20;;;17.80;99.90;;;;;;4867927;29;20049;-78
2022/07/26 06:00:09;;;;;;;9.20;1.50;;;17.80;99.90;;;;;;4870953;29;20048;-77
2022/07/26 06:02:35;;;;;;;8.60;1.58;;;17.80;99.90;;;;;;4874929;29;20079;-78
2022/07/26 06:05:01;;;;;;;4.07;1.23;;;17.70;99.90;;;;;;4866283;29;20730;-75
2022/07/26 06:07:26;;;;;;;8.95;1.25;;;17.70;99.90;;;;;;4869074;29;20081;-75
2022/07/26 06:09:52;;;;;;;6.20;1.40;;;17.60;99.90;;;;;;4872322;29;20049;-75
2022/07/26 06:12:18;;;;;;;7.63;1.27;;;17.50;99.90;;;;;;4865960;29;20573;-74
2022/07/26 06:14:44;;;;;;;7.05;1.27;;;17.60;99.90;;;;;;4869374;29;20040;-77
2022/07/26 06:17:10;;;;;;;5.57;1.45;;;17.60;99.90;;;;;;4870135;29;20398;-78
2022/07/26 06:19:35;;;;;;;4.28;1.27;;;17.50;99.90;;;;;;4870526;29;20056;-78
2022/07/26 06:22:01;;;;;;;4.30;1.10;;;17.50;99.90;;;;;;4876433;29;20108;-74
2022/07/26 06:24:27;;;;;;;3.30;0.90;;;17.40;99.90;;;;;;4882933;29;20122;-77
2022/07/26 06:26:54;;;;;;;7.28;0.90;;;17.40;99.90;;;;;;4878222;29;20462;-77
2022/07/26 06:29:20;;;;;;;4.00;0.90;;;17.30;99.90;;;;;;4872725;29;20120;-77
2022/07/26 06:31:46;;;;;;;6.00;1.15;;;17.30;99.90;;;;;;4863082;29;20042;-78
2022/07/26 06:34:12;;;;;;;3.75;0.77;;;17.30;99.90;;;;;;4858938;29;20040;-79
2022/07/26 06:36:38;;;;;;;7.25;1.65;;;17.30;99.90;;;;;;4888607;29;20057;-78
2022/07/26 06:39:03;;;;;;;3.70;1.00;;;17.30;99.90;;;;;;4879931;29;20045;-76
2022/07/26 06:41:29;;;;;;;4.22;1.30;;;17.30;99.90;;;;;;4868962;29;20079;-76
2022/07/26 06:43:55;;;;;;;7.28;0.80;;;17.40;99.90;;;;;;4876234;29;20045;-74
2022/07/26 06:46:21;;;;;;;3.47;0.70;;;17.40;99.90;;;;;;4874496;29;20137;-74
2022/07/26 06:48:47;;;;;;;3.35;0.70;;;17.50;99.90;;;;;;4861832;29;22151;-73
2022/07/26 06:51:13;;;;;;;3.22;0.93;;;17.60;99.90;;;;;;4867960;29;20049;-76
2022/07/26 06:53:39;;;;;;;3.80;0.93;;;17.60;99.90;;;;;;4871908;29;20105;-75
2022/07/26 06:56:05;;;;;;;3.88;1.08;;;17.60;99.90;;;;;;4885744;29;20147;-75
2022/07/26 06:58:31;;;;;;;2.22;0.70;;;17.60;99.90;;;;;;4870046;29;20402;-74
2022/07/26 07:00:56;;;;;;;7.32;0.88;;;17.70;99.90;;;;;;4874706;29;20113;-76
2022/07/26 07:03:22;;;;;;;5.97;1.27;;;17.70;99.90;;;;;;4873404;29;20060;-75
2022/07/26 07:05:48;;;;;;;6.25;1.00;;;17.80;99.90;;;;;;4857317;29;20052;-75
2022/07/26 07:08:14;;;;;;;5.38;1.42;;;17.90;99.90;;;;;;4867693;29;20419;-75
2022/07/26 07:10:40;;;;;;;3.63;1.05;;;18.10;99.90;;;;;;4869325;29;20056;-78
2022/07/26 07:13:05;;;;;;;4.20;0.90;;;17.90;99.90;;;;;;4865804;29;20049;-75
2022/07/26 07:15:31;;;;;;;2.58;0.70;;;17.80;99.90;;;;;;4855501;29;20387;-75
2022/07/26 07:17:57;;;;;;;3.78;0.75;;;17.60;99.90;;;;;;4875619;29;20055;-75
2022/07/26 07:20:23;;;;;;;2.58;0.70;;;17.30;99.90;;;;;;4853649;29;20144;-75
2022/07/26 07:22:48;;;;;;;4.05;0.80;;;17.10;99.90;;;;;;4864226;29;20073;-75
2022/07/26 07:25:14;;;;;;;5.45;0.55;;;17.00;99.90;;;;;;4867422;29;20049;-75
2022/07/26 07:27:40;;;;;;;3.25;0.60;;;16.90;99.90;;;;;;4873199;29;20045;-76
2022/07/26 07:30:07;;;;;;;3.30;0.85;;;16.90;99.90;;;;;;4873973;29;20044;-76
2022/07/26 07:32:33;;;;;;;3.47;0.70;;;16.90;99.90;;;;;;4870130;29;20538;-76
2022/07/26 07:34:58;;;;;;;2.95;0.90;;;17.00;99.90;;;;;;4866215;29;20084;-76
2022/07/26 07:37:24;;;;;;;3.72;0.70;;;17.10;99.90;;;;;;4866732;29;20049;-77
2022/07/26 07:39:50;;;;;;;5.72;0.80;;;17.20;99.90;;;;;;4875943;29;20060;-76
2022/07/26 07:42:17;;;;;;;3.78;0.60;;;17.30;99.90;;;;;;4878816;29;20502;-76
2022/07/26 07:44:42;;;;;;;5.82;1.27;;;17.50;99.90;;;;;;4871644;29;20049;-77
2022/07/26 07:47:08;;;;;;;3.72;0.93;;;17.60;99.90;;;;;;4861016;29;20139;-77
2022/07/26 07:49:35;;;;;;;2.72;0.85;;;17.70;99.90;;;;;;4878157;29;20053;-77
2022/07/26 07:52:01;;;;;;;7.65;1.00;;;17.80;99.90;;;;;;4873365;29;20053;-76
2022/07/26 07:54:26;;;;;;;4.15;0.80;;;18.00;99.90;;;;;;4874764;29;20042;-77
2022/07/26 07:56:55;;;;;;;3.45;1.00;;;18.10;99.90;;;;;;4884196;29;20439;-76
2022/07/26 07:59:21;;;;;;;3.90;1.00;;;18.10;99.90;;;;;;4868499;29;20045;-76
2022/07/26 08:01:47;;;;;;;4.00;0.90;;;18.20;99.90;;;;;;4867659;29;20041;-77
2022/07/26 08:04:13;;;;;;;3.58;0.60;;;18.40;99.90;;;;;;4859950;29;20053;-77
2022/07/26 08:06:38;;;;;;;3.25;0.80;;;18.60;99.90;;;;;;4872236;29;20056;-76
2022/07/26 08:09:04;;;;;;;3.13;0.82;;;18.90;99.90;;;;;;4854706;29;20090;-77
2022/07/26 08:11:30;;;;;;;3.55;0.77;;;19.20;99.90;;;;;;4853555;29;20051;-77
2022/07/26 08:13:56;;;;;;;4.15;0.80;;;19.60;99.90;;;;;;4858597;29;20065;-77
2022/07/26 08:16:22;;;;;;;2.22;0.68;;;19.70;99.90;;;;;;4859361;29;20041;-76
2022/07/26 08:18:48;;;;;;;5.85;0.88;;;19.70;99.90;;;;;;4866383;29;20475;-77
2022/07/26 08:21:13;;;;;;;3.78;0.75;;;19.60;99.90;;;;;;4871083;29;20038;-77
2022/07/26 08:23:39;;;;;;;5.47;0.82;;;19.70;99.90;;;;;;4873806;29;20037;-76
2022/07/26 08:26:06;;;;;;;2.22;0.60;;;19.70;99.90;;;;;;4871039;29;20123;-77
2022/07/26 08:28:32;;;;;;;2.55;0.70;;;19.60;99.90;;;;;;4873079;29;20542;-77
2022/07/26 08:30:57;;;;;;;4.72;0.80;;;19.60;99.90;;;;;;4872032;29;20040;-77
2022/07/26 08:33:23;;;;;;;4.07;0.90;;;19.50;99.90;;;;;;4851214;29;20394;-78
2022/07/26 08:35:49;;;;;;;6.63;0.93;;;19.40;99.90;;;;;;4859914;29;20198;-77
2022/07/26 08:38:14;;;;;;;3.53;0.80;;;19.50;99.90;;;;;;4856371;29;20045;-78
2022/07/26 08:40:40;;;;;;;3.70;0.80;;;19.50;99.90;;;;;;4873555;29;20104;-77
2022/07/26 08:43:07;;;;;;;3.75;1.00;;;19.50;99.90;;;;;;4869990;29;20056;-78
2022/07/26 08:45:33;;;;;;;4.43;1.02;;;19.50;99.90;;;;;;4863771;29;20049;-78
2022/07/26 08:48:00;;;;;;;3.05;0.75;;;19.30;99.90;;;;;;4862266;29;20057;-77
2022/07/26 08:50:27;;;;;;;3.13;0.90;;;19.30;99.90;;;;;;4844861;29;20057;-77
2022/07/26 08:52:58;;;;;;;2.63;0.68;;;19.00;99.90;;;;;;4865365;29;20056;-77
2022/07/26 08:55:24;;;;;;;3.15;0.70;;;18.80;99.90;;;;;;4870204;29;20063;-78
2022/07/26 08:57:49;;;;;;;4.88;1.00;;;18.60;99.90;;;;;;4852509;29;20470;-78
2022/07/26 09:00:20;;;;;;;6.07;1.33;;;18.40;99.90;;;;;;4866492;29;20049;-78
2022/07/26 09:02:47;;;;;;;5.55;1.23;;;18.40;99.90;;;;;;4858495;29;20124;-78
2022/07/26 09:05:14;;;;;;;4.25;0.98;;;18.50;99.90;;;;;;4831930;29;20061;-77
2022/07/26 09:07:40;;;;;;;5.35;1.15;;;18.50;99.90;;;;;;4861383;29;20029;-77
2022/07/26 09:10:14;;;;;;;5.80;1.38;;;18.50;99.90;;;;;;4870589;29;20491;-78
2022/07/26 09:12:40;;;;;;;6.05;1.10;;;18.60;99.90;;;;;;4870510;29;20071;-77
2022/07/26 09:15:16;;;;;;;7.93;1.40;;;18.70;99.90;;;;;;4864143;29;20057;-78
2022/07/26 09:17:48;;;;;;;8.93;1.25;;;18.80;99.90;;;;;;4869190;29;20052;-78
2022/07/26 09:20:19;;;;;;;5.10;0.95;;;19.10;99.90;;;;;;4867872;29;20046;-78
2022/07/26 09:23:08;;;;;;;2.95;0.75;;;19.40;99.90;;;;;;4858509;29;20041;-78
2022/07/26 09:25:40;;;;;;;5.53;1.27;;;19.70;99.90;;;;;;4876144;29;20080;-77
2022/07/26 09:28:30;;;;;;;7.50;1.30;;;19.90;99.90;;;;;;4862684;29;20041;-78
2022/07/26 09:31:01;;;;;;;3.58;1.00;;;20.10;99.90;;;;;;4853686;29;20561;-77
2022/07/26 09:33:49;;;;;;;4.88;1.40;;;20.20;99.90;;;;;;4864230;29;20053;-78
2022/07/26 09:36:15;;;;;;;8.43;1.42;;;20.20;99.90;;;;;;4871742;29;20532;-78
2022/07/26 09:38:46;;;;;;;7.65;1.17;;;20.20;99.90;;;;;;4866465;29;20041;-78
2022/07/26 09:41:33;;;;;;;4.57;1.00;;;20.10;99.90;;;;;;4878191;29;20128;-78
2022/07/26 09:44:02;;;;;;;6.32;1.13;;;20.00;99.90;;;;;;4877144;29;20045;-78
2022/07/26 09:46:30;;;;;;;10.70;1.63;;;19.90;99.90;;;;;;4858003;29;20136;-78
2022/07/26 09:49:14;;;;;;;5.50;1.23;;;19.90;99.90;;;;;;4875496;29;20049;-78
2022/07/26 09:51:43;;;;;;;4.63;1.25;;;19.80;99.90;;;;;;4867794;29;20049;-78
2022/07/26 09:54:10;;;;;;;6.78;1.30;;;19.70;99.90;;;;;;4861398;29;20364;-78
2022/07/26 09:56:44;;;;;;;5.90;1.17;;;19.50;99.90;;;;;;4864081;29;20068;-79
2022/07/26 09:59:11;;;;;;;5.65;1.40;;;19.50;99.90;;;;;;4875971;29;20045;-79
2022/07/26 10:01:36;;;;;;;10.13;1.65;;;19.50;99.90;;;;;;4880486;29;20494;-78
2022/07/26 10:04:02;;;;;;;10.48;1.63;;;19.40;99.90;;;;;;4846817;29;20049;-78
2022/07/26 10:06:28;;;;;;;8.55;1.75;;;19.40;99.90;;;;;;4864460;29;20065;-79
2022/07/26 10:08:56;;;;;;;6.18;1.67;;;19.40;99.90;;;;;;4857310;29;20059;-79
2022/07/26 10:11:24;;;;;;;6.70;1.27;;;19.50;99.90;;;;;;4866824;29;20053;-79
2022/07/26 10:13:49;;;;;;;8.73;1.52;;;19.50;99.90;;;;;;4849096;29;20124;-79
2022/07/26 10:16:30;;;;;;;5.68;1.27;;;19.80;99.90;;;;;;4872313;29;20129;-78
2022/07/26 10:18:57;;;;;;;4.20;1.10;;;19.90;99.90;;;;;;4848211;29;20080;-79
2022/07/26 10:21:30;;;;;;;5.05;1.45;;;20.00;99.90;;;;;;4846679;29;20034;-78
2022/07/26 10:23:58;;;;;;;9.57;1.42;;;20.00;99.90;;;;;;4867215;29;20041;-80
2022/07/26 10:26:30;;;;;;;7.95;1.48;;;19.90;99.90;;;;;;4866414;29;20116;-78
2022/07/26 10:29:15;;;;;;;11.25;2.17;;;19.70;99.90;;;;;;4863786;29;20053;-76
2022/07/26 10:32:08;;;;;;;10.50;2.22;;;19.50;99.90;;;;;;4871736;29;20092;-76
2022/07/26 10:34:37;;;;;;;10.32;2.03;;;19.40;99.90;;;;;;4860480;29;20042;-76
2022/07/26 10:37:05;;;;;;;6.65;1.70;;;19.10;99.90;;;;;;4862260;29;20037;-76
2022/07/26 10:39:31;;;;;;;9.35;1.92;;;19.00;99.90;;;;;;4870760;29;20045;-78
2022/07/26 10:42:10;;;;;;;7.25;1.95;;;18.90;99.90;;;;;;4856631;29;20478;-76
2022/07/26 10:44:41;;;;;;;5.97;1.70;;;18.80;99.90;;;;;;4872931;29;20048;-79
2022/07/26 10:47:06;;;;;;;8.32;1.75;;;18.70;99.90;;;;;;4877368;29;20045;-77
2022/07/26 10:49:36;;;;;;;5.22;1.42;;;18.70;99.90;;;;;;4857202;29;20068;-77
2022/07/26 10:52:18;;;;;;;6.93;1.73;;;18.70;99.90;;;;;;4875224;29;20056;-77
2022/07/26 10:54:56;;;;;;;9.88;1.55;;;18.70;99.90;;;;;;4865129;29;20048;-77
2022/07/26 10:57:23;;;;;;;8.70;1.70;;;18.80;99.90;;;;;;4854751;29;20178;-77
2022/07/26 10:59:49;;;;;;;11.18;2.33;;;19.00;99.90;;;;;;4849751;29;20421;-77
2022/07/26 11:02:19;;;;;;;8.90;1.90;;;19.10;99.90;;;;;;4856642;29;20037;-77
2022/07/26 11:04:45;;;;;;;7.95;1.70;;;19.40;99.90;;;;;;4854474;29;20052;-77
2022/07/26 11:07:13;;;;;;;12.10;1.88;;;19.60;99.90;;;;;;4846073;29;20049;-77
2022/07/26 11:09:40;;;;;;;8.68;2.20;;;19.80;99.90;;;;;;4854971;29;20089;-77
2022/07/26 11:12:19;;;;;;;9.35;1.85;;;19.80;99.90;;;;;;4859824;29;20112;-77
2022/07/26 11:14:45;;;;;;;10.05;2.03;;;19.80;99.90;;;;;;4844826;29;20076;-77
2022/07/26 11:17:29;;;;;;;12.32;1.65;;;19.70;99.90;;;;;;4875511;29;20073;-76
2022/07/26 11:19:56;;;;;;;12.68;2.20;;;19.60;99.90;;;;;;4875051;29;20063;-76
2022/07/26 11:22:31;;;;;;;11.75;1.85;;;19.50;99.90;;;;;;4866629;29;20065;-77
2022/07/26 11:24:56;;;;;;;9.90;2.05;;;19.40;99.90;;;;;;4865116;29;20628;-76
2022/07/26 11:27:22;;;;;;;9.73;2.30;;;19.50;99.90;;;;;;4877234;29;20048;-76
2022/07/26 11:29:48;;;;;;;7.93;2.08;;;19.50;99.90;;;;;;4868425;29;20052;-77
2022/07/26 11:32:20;;;;;;;11.52;2.00;;;19.50;99.90;;;;;;4861357;29;20052;-77
2022/07/26 11:34:46;;;;;;;9.38;2.10;;;19.50;99.90;;;;;;4860452;29;20518;-77
2022/07/26 11:37:12;;;;;;;8.93;2.03;;;19.60;99.90;;;;;;4860306;29;20054;-77
2022/07/26 11:39:38;;;;;;;8.10;2.03;;;19.70;99.90;;;;;;4865673;29;20038;-77
2022/07/26 11:42:10;;;;;;;12.05;1.92;;;19.70;99.90;;;;;;4864783;29;20399;-77
2022/07/26 11:44:36;;;;;;;8.70;1.90;;;19.70;99.90;;;;;;4861302;29;20519;-78
2022/07/26 11:47:21;;;;;;;14.88;2.88;;;19.70;99.90;;;;;;4878503;29;20033;-77
2022/07/26 11:49:48;;;;;;;8.07;2.30;;;19.80;99.90;;;;;;4872125;29;20053;-76
2022/07/26 11:52:15;;;;;;;7.65;1.83;;;19.60;99.90;;;;;;4871528;29;20095;-76
2022/07/26 11:54:47;;;;;;;11.20;1.85;;;19.50;99.90;;;;;;4849285;29;20128;-77
2022/07/26 11:57:13;;;;;;;7.82;1.70;;;19.50;99.90;;;;;;4853844;29;20129;-77
2022/07/26 11:59:40;;;;;;;9.45;1.70;;;19.60;99.90;;;;;;4860906;29;20041;-77
2022/07/26 12:02:08;;;;;;;7.72;1.80;;;19.60;99.90;;;;;;4860234;29;20045;-77
2022/07/26 12:04:39;;;;;;;10.70;1.83;;;19.70;99.90;;;;;;4846751;29;20399;-76
2022/07/26 12:07:09;;;;;;;13.13;2.22;;;19.80;99.90;;;;;;4846264;29;20117;-76
2022/07/26 12:09:36;;;;;;;13.13;2.03;;;19.90;99.80;;;;;;4866611;29;20108;-76
2022/07/26 12:12:05;;;;;;;14.45;2.42;;;20.00;99.70;;;;;;4874334;29;20136;-77
2022/07/26 12:14:40;;;;;;;11.85;2.28;;;20.20;99.90;;;;;;4860669;29;20049;-76
2022/07/26 12:17:17;;;;;;;9.55;1.90;;;20.30;99.10;;;;;;4848192;29;20581;-76
2022/07/26 12:19:43;;;;;;;8.85;1.77;;;20.40;99.00;;;;;;4876314;29;20517;-76
2022/07/26 12:22:15;;;;;;;10.35;1.67;;;20.40;98.90;;;;;;4861122;29;20124;-77
2022/07/26 12:24:45;;;;;;;10.50;1.70;;;20.40;98.20;;;;;;4866880;29;20045;-77
2022/07/26 12:27:20;;;;;;;10.93;1.65;;;20.40;98.50;;;;;;4861429;29;20052;-77
2022/07/26 12:30:13;;;;;;;8.63;1.70;;;20.50;98.60;;;;;;4876043;29;20045;-76
2022/07/26 12:32:42;;;;;;;8.95;1.55;;;20.70;97.70;;;;;;4844944;29;20387;-76
2022/07/26 12:35:13;;;;;;;6.63;1.55;;;20.80;96.10;;;;;;4852086;29;20045;-77
2022/07/26 12:37:45;;;;;;;6.88;1.58;;;20.90;96.00;;;;;;4861523;29;20049;-77
2022/07/26 12:40:20;;;;;;;9.52;1.83;;;20.80;95.70;;;;;;4858564;29;20124;-76
2022/07/26 12:42:49;;;;;;;5.75;1.50;;;20.80;96.20;;;;;;4861436;29;20041;-76
2022/07/26 12:45:24;;;;;;;10.38;2.05;;;20.80;95.70;;;;;;4859344;29;20049;-77
2022/07/26 12:47:51;;;;;;;7.15;1.60;;;20.70;95.70;;;;;;4857839;29;20069;-77
2022/07/26 12:50:20;;;;;;;8.38;1.65;;;20.80;96.00;;;;;;4851595;29;20094;-76